Martorell — HPNE — position and weather

sailwx.info

Track history (hours):
 
Tides and Currents Weather Stations Pressure Air Temp Water Temp Dewpoint Dewpoint Depression Visibility Wind Speed Wind Dir Waves Ship Positions

Martorell

Last reported at 2018-May-23 10:12 UTC. Time now 2018-May-26 04:17 UTC.
Position N 32°37' W 117°21'.

Type: Cargo ship. MMSI: 351780000.

Date/timePositionNaut miles runAvg speedWind from/ knotsBaromVisibWave heightAir tempDewpointWater temp
2018-May-23 10:12N 32°37' W 117°21'211.1
2018-May-23 10:00N 32°37' W 117°24'611.4
2018-May-23 09:30N 32°36' W 117°31'511.3
2018-May-23 09:01N 32°36' W 117°37'612.4
2018-May-23 08:30N 32°36' W 117°45'917.2
2018-May-23 08:00N 32°36' W 117°55'7213.4
2018-May-23 02:38N 33°15' W 119°07'217.2
2018-May-23 02:30N 33°16' W 119°08'917.2
2018-May-23 02:00N 33°23' W 119°14'3817.4
2018-May-22 23:49N 33°43' W 119°53'516.2
2018-May-22 23:29N 33°46' W 119°59'11 6.7
2018-May-22 21:51N 33°48' W 120°12'3 7.5
2018-May-22 21:29N 33°48' W 120°15'816.0
2018-May-22 20:59N 33°48' W 120°25'816.8
2018-May-22 20:30N 33°47' W 120°34'714.4
2018-May-22 20:00N 33°50' W 120°42'714.8
2018-May-22 19:30N 33°57' W 120°46'714.4
2018-May-22 19:00N 34°03' W 120°50'713.9
2018-May-22 18:30N 34°09' W 120°53'714.4
2018-May-22 18:00N 34°16' W 120°58'714.7
2018-May-22 17:30N 34°22' W 121°03'714.5
2018-May-22 17:01N 34°28' W 121°08'815.3
2018-May-22 16:30N 34°34' W 121°13'815.2
2018-May-22 16:00N 34°41' W 121°18'714.9
2018-May-22 15:30N 34°47' W 121°22'714.4
2018-May-22 15:00N 34°53' W 121°27'814.2
2018-May-22 14:26N 35°00' W 121°31'614.1
2018-May-22 14:00N 35°06' W 121°35'12914.6
2018-May-22 05:12N 37°03' W 122°39'314.8
2018-May-22 05:00N 37°06' W 122°40'814.9
2018-May-22 04:30N 37°13' W 122°43'714.9
2018-May-22 04:00N 37°21' W 122°44'714.7
2018-May-22 03:30N 37°28' W 122°44'714.6
2018-May-22 03:00N 37°35' W 122°44'714.8
2018-May-22 02:30N 37°42' W 122°42'5 9.2
2018-May-22 02:01N 37°46' W 122°38'713.5
2018-May-22 01:31N 37°49' W 122°30'611.2
2018-May-22 01:00N 37°53' W 122°25'2 4.3
2018-May-22 00:30N 37°54' W 122°24'1 2.7
2018-May-22 00:00N 37°54' W 122°22'0 0.0
2018-May-21 23:30N 37°54' W 122°22'0 0.0
2018-May-21 23:00N 37°54' W 122°22'0 0.1
2018-May-21 22:30N 37°54' W 122°22'0 0.1
2018-May-21 22:00N 37°54' W 122°22'0 0.0
2018-May-21 21:30N 37°54' W 122°22'0 0.1
2018-May-21 21:00N 37°54' W 122°22'0 0.1
2018-May-21 20:30N 37°54' W 122°22'0 0.0
2018-May-21 20:00N 37°54' W 122°22'0 0.0
2018-May-21 19:30N 37°54' W 122°22'0 0.0
2018-May-21 18:57N 37°54' W 122°22'0 0.0
2018-May-21 18:30N 37°54' W 122°22'0 0.0
2018-May-21 18:00N 37°54' W 122°22'0 0.0
2018-May-21 17:30N 37°54' W 122°22'0 0.0
2018-May-21 17:00N 37°54' W 122°22'0 0.0
2018-May-21 16:27N 37°54' W 122°22'0 0.0
2018-May-21 16:00N 37°54' W 122°22'0 0.0
2018-May-21 15:30N 37°54' W 122°22'0 0.0
2018-May-21 15:00N 37°54' W 122°22'0 0.1
2018-May-21 14:30N 37°54' W 122°22'0 0.0
2018-May-21 14:00N 37°54' W 122°22'0 0.4
2018-May-21 13:30N 37°54' W 122°22'3 5.4
2018-May-21 13:00N 37°55' W 122°25'4 8.1
2018-May-21 12:30N 37°51' W 122°25'3 5.3
2018-May-21 12:00N 37°49' W 122°27'510.9
2018-May-21 11:30N 37°47' W 122°33'713.1
2018-May-21 11:00N 37°44' W 122°41'5 9.3
2018-May-21 10:30N 37°46' W 122°46'712.5
2018-May-21 09:59N 37°49' W 122°53'612.4
2018-May-21 09:30N 37°52' W 122°60'612.5
2018-May-21 09:00N 37°56' W 123°07'612.3
2018-May-21 08:30N 37°59' W 123°13'612.0
2018-May-21 08:00N 38°04' W 123°18'612.3
2018-May-21 07:30N 38°08' W 123°23'714.9
2018-May-21 07:00N 38°14' W 123°29'918.0
2018-May-21 06:30N 38°22' W 123°36'918.0
2018-May-21 06:01N 38°29' W 123°42'917.6
2018-May-21 05:30N 38°37' W 123°47'1017.6
2018-May-21 04:56N 38°45' W 123°54'33017.8
2018-May-20 10:24N 44°14' W 124°38'819.0
2018-May-20 09:57N 44°22' W 124°36'5518.6
2018-May-20 06:58N 45°17' W 124°26'919.0
2018-May-20 06:30N 45°26' W 124°24'918.6
2018-May-20 06:00N 45°35' W 124°22'1518.8
2018-May-20 05:11N 45°51' W 124°19'318.7
2018-May-20 05:00N 45°54' W 124°18'918.4
2018-May-20 04:30N 46°03' W 124°16'1217.1
2018-May-20 03:48N 46°14' W 124°08'517.1
2018-May-20 03:30N 46°15' W 124°01'714.3
2018-May-20 03:00N 46°12' W 123°52'4 8.4
2018-May-20 02:30N 46°13' W 123°46'714.2
2018-May-20 02:01N 46°15' W 123°37'714.1
2018-May-20 01:31N 46°15' W 123°26'612.7
2018-May-20 01:00N 46°09' W 123°23'613.0
2018-May-20 00:31N 46°10' W 123°14'714.6
2018-May-20 00:01N 46°09' W 123°03'713.6
2018-May-19 23:30N 46°05' W 122°55'510.8
2018-May-19 23:00N 46°01' W 122°51'713.7
2018-May-19 22:31N 45°54' W 122°48'713.5
2018-May-19 22:01N 45°48' W 122°47'713.3
2018-May-19 21:31N 45°41' W 122°47'3 6.3
2018-May-19 21:00N 45°38' W 122°44'0 0.3
2018-May-19 20:29N 45°38' W 122°44'0 0.0
2018-May-19 19:59N 45°38' W 122°44'0 0.0
2018-May-19 19:26N 45°38' W 122°44'0 0.0
2018-May-19 18:59N 45°38' W 122°44'0 0.0
2018-May-19 18:26N 45°38' W 122°44'0 0.0
2018-May-19 17:59N 45°38' W 122°44'0 0.0
2018-May-19 17:29N 45°38' W 122°44'0 0.0
2018-May-19 16:59N 45°38' W 122°44'0 0.0
2018-May-19 16:29N 45°38' W 122°44'0 0.0
2018-May-19 15:56N 45°38' W 122°44'0 0.0
2018-May-19 15:23N 45°38' W 122°44'0 0.0
2018-May-19 14:59N 45°38' W 122°44'0 0.0
2018-May-19 14:29N 45°38' W 122°44'0 0.0
2018-May-19 13:59N 45°38' W 122°44'0 0.0
2018-May-19 13:29N 45°38' W 122°44'0 0.0
2018-May-19 12:56N 45°38' W 122°44'0 0.0
2018-May-19 12:26N 45°38' W 122°44'0 0.0
2018-May-19 11:59N 45°38' W 122°44'0 0.0
2018-May-19 11:26N 45°38' W 122°44'0 0.6
2018-May-19 11:00N 45°38' W 122°45'4 7.9
2018-May-19 10:30N 45°42' W 122°46'613.1
2018-May-19 10:00N 45°48' W 122°48'612.9
2018-May-19 09:31N 45°55' W 122°49'612.3
2018-May-19 09:01N 46°01' W 122°51'510.2
2018-May-19 08:30N 46°05' W 122°55'510.1
2018-May-19 08:00N 46°08' W 123°00'712.8
2018-May-19 07:29N 46°11' W 123°09'812.8
2018-May-19 06:50N 46°09' W 123°20'310.1
2018-May-19 06:30N 46°10' W 123°25'511.0
2018-May-19 06:01N 46°15' W 123°27'612.5
2018-May-19 05:30N 46°15' W 123°36'612.8
2018-May-19 05:00N 46°13' W 123°45'5 9.7
2018-May-19 04:31N 46°12' W 123°51'911.6
2018-May-19 03:44N 46°15' W 124°03'312.9
2018-May-19 03:30N 46°14' W 124°07'611.9
2018-May-19 03:00N 46°11' W 124°14'5 9.8
2018-May-19 02:30N 46°11' W 124°21'1 0.9
2018-May-19 01:51N 46°11' W 124°20'1 0.8
2018-May-19 01:12N 46°11' W 124°20'0 0.6
2018-May-19 01:00N 46°11' W 124°20'12 0.4
2018-May-17 20:13N 46°15' W 124°37'0 0.5
2018-May-17 20:00N 46°15' W 124°37'0 0.5
2018-May-17 19:30N 46°15' W 124°36'0 0.8
2018-May-17 19:00N 46°15' W 124°36'0 0.9
2018-May-17 18:30N 46°14' W 124°36'1 1.0
2018-May-17 18:00N 46°14' W 124°35'0 1.0
2018-May-17 17:30N 46°14' W 124°35'1 1.1
2018-May-17 17:00N 46°14' W 124°34'0 0.6
2018-May-17 16:30N 46°13' W 124°33'0 0.4
2018-May-17 16:00N 46°13' W 124°33'0 0.4
2018-May-17 15:30N 46°13' W 124°33'0 0.3
2018-May-17 15:00N 46°13' W 124°33'0 0.4
2018-May-17 14:30N 46°13' W 124°32'0 0.4
2018-May-17 14:00N 46°13' W 124°32'0 0.4
2018-May-17 13:28N 46°14' W 124°32'0 0.3
2018-May-17 13:00N 46°14' W 124°32'0 0.1
2018-May-17 12:30N 46°14' W 124°32'0 0.5
2018-May-17 12:00N 46°14' W 124°31'0 0.4
2018-May-17 11:30N 46°14' W 124°32'0 0.3
2018-May-17 11:00N 46°14' W 124°31'0 0.4
2018-May-17 10:30N 46°14' W 124°31'0 0.2
2018-May-17 10:00N 46°14' W 124°31'0 0.3
2018-May-17 09:30N 46°14' W 124°31'0 0.5
2018-May-17 09:00N 46°15' W 124°31'0 0.5
2018-May-17 08:30N 46°15' W 124°30'0 0.4
2018-May-17 08:00N 46°15' W 124°30'0 0.5
2018-May-17 07:22N 46°15' W 124°30'0 0.5
2018-May-17 07:00N 46°15' W 124°29'1 2.6
2018-May-17 06:30N 46°13' W 124°29'713.3
2018-May-17 06:00N 46°08' W 124°23'6 8.4
2018-May-17 05:21N 46°03' W 124°19'0 1.2
2018-May-17 05:00N 46°03' W 124°20'1 1.0
2018-May-17 04:30N 46°04' W 124°20'1 1.1
2018-May-17 04:00N 46°04' W 124°21'1 1.1
2018-May-17 03:30N 46°05' W 124°21'1 1.1
2018-May-17 03:00N 46°05' W 124°22'1 1.1
2018-May-17 02:16N 46°05' W 124°23'0 1.3
2018-May-17 02:00N 46°06' W 124°23'1 1.0
2018-May-17 01:30N 46°06' W 124°23'0 1.0
2018-May-17 01:00N 46°07' W 124°24'1 0.8
2018-May-16 23:57N 46°07' W 124°25'0 0.4
2018-May-16 23:30N 46°07' W 124°25'0 0.6
2018-May-16 23:00N 46°07' W 124°25'0 0.7
2018-May-16 22:30N 46°08' W 124°26'0 1.0
2018-May-16 22:00N 46°08' W 124°26'0 0.9
2018-May-16 21:30N 46°09' W 124°26'0 0.9
2018-May-16 21:00N 46°09' W 124°26'0 0.8
2018-May-16 20:30N 46°09' W 124°25'0 0.9
2018-May-16 20:00N 46°09' W 124°26'3 6.6
2018-May-16 19:30N 46°06' W 124°27'1 1.1
2018-May-16 19:00N 46°06' W 124°27'1 1.1
2018-May-16 18:30N 46°07' W 124°27'1 1.0
2018-May-16 18:00N 46°08' W 124°27'1 1.1
2018-May-16 17:30N 46°08' W 124°26'1 1.2
2018-May-16 17:00N 46°09' W 124°26'1 1.3
2018-May-16 16:30N 46°09' W 124°26'1 1.2
2018-May-16 16:00N 46°10' W 124°26'1 1.1
2018-May-16 15:30N 46°10' W 124°26'1 1.1
2018-May-16 15:00N 46°11' W 124°26'1 1.3
2018-May-16 14:30N 46°12' W 124°26'1 1.0
2018-May-16 14:00N 46°12' W 124°26'1 1.2
2018-May-16 13:30N 46°13' W 124°26'1 1.1
2018-May-16 13:00N 46°13' W 124°27'0 0.8
2018-May-16 12:30N 46°14' W 124°27'0 0.4
2018-May-16 12:00N 46°14' W 124°27'0 0.7
2018-May-16 11:30N 46°14' W 124°27'0 0.7
2018-May-16 11:00N 46°14' W 124°28'0 0.6
2018-May-16 10:30N 46°15' W 124°28'0 0.6
2018-May-16 10:00N 46°15' W 124°28'0 0.6
2018-May-16 09:30N 46°15' W 124°29'0 0.7
2018-May-16 09:00N 46°15' W 124°29'0 0.8
2018-May-16 08:30N 46°14' W 124°29'0 0.3
2018-May-16 08:00N 46°14' W 124°29'0 0.3
2018-May-16 07:30N 46°14' W 124°29'0 0.2
2018-May-16 07:00N 46°14' W 124°29'0 0.2
2018-May-16 06:30N 46°14' W 124°29'0 0.4
2018-May-16 06:00N 46°14' W 124°29'0 0.4
2018-May-16 05:29N 46°14' W 124°28'0 0.6
2018-May-16 05:00N 46°14' W 124°28'0 0.6
2018-May-16 04:30N 46°14' W 124°28'1 1.1
2018-May-16 04:00N 46°14' W 124°27'1 1.3
2018-May-16 03:30N 46°15' W 124°26'0 0.9
2018-May-16 03:00N 46°15' W 124°26'0 0.6
2018-May-16 02:30N 46°15' W 124°25'1 1.0
2018-May-16 02:00N 46°16' W 124°25'0 0.6
2018-May-16 01:30N 46°16' W 124°25'0 0.8
2018-May-16 01:00N 46°16' W 124°25'0 0.8
2018-May-16 00:30N 46°16' W 124°25'0 0.9
2018-May-16 00:00N 46°17' W 124°26'1 0.9
2018-May-15 23:17N 46°17' W 124°27'0 0.9
2018-May-15 23:00N 46°17' W 124°27'0 0.8
2018-May-15 22:30N 46°17' W 124°28'0 0.4
2018-May-15 21:56N 46°17' W 124°28'1 0.8
2018-May-15 21:17N 46°17' W 124°29'0 0.8
2018-May-15 21:00N 46°17' W 124°29'1 1.0
2018-May-15 20:30N 46°17' W 124°30'1 1.0
2018-May-15 20:00N 46°16' W 124°31'1 1.1
2018-May-15 19:30N 46°16' W 124°31'0 0.7
2018-May-15 19:00N 46°16' W 124°32'0 0.8
2018-May-15 18:30N 46°15' W 124°32'0 0.6
2018-May-15 17:49N 46°15' W 124°32'0 0.6
2018-May-15 17:30N 46°15' W 124°32'2 3.6
2018-May-15 17:00N 46°17' W 124°33'714.7
2018-May-15 16:30N 46°24' W 124°32'816.9
2018-May-15 16:01N 46°32' W 124°34'816.6
2018-May-15 15:31N 46°40' W 124°39'918.2
2018-May-15 15:00N 46°48' W 124°45'918.5
2018-May-15 14:30N 46°57' W 124°48'1018.4
2018-May-15 13:58N 47°06' W 124°53'918.5
2018-May-15 13:30N 47°15' W 124°57'2218.4
2018-May-15 12:17N 47°35' W 125°08'518.5
2018-May-15 12:00N 47°40' W 125°11'918.4
2018-May-15 11:30N 47°49' W 125°15'917.4
2018-May-15 11:00N 47°58' W 125°16'1018.4
2018-May-15 10:27N 48°08' W 125°12'818.4
2018-May-15 10:00N 48°16' W 125°10'917.6
2018-May-15 09:29N 48°25' W 125°07'817.1
2018-May-15 09:00N 48°30' W 124°58'918.4
2018-May-15 08:30N 48°30' W 124°44'917.8
2018-May-15 08:00N 48°27' W 124°32'918.1
2018-May-15 07:30N 48°24' W 124°19'918.2
2018-May-15 07:00N 48°20' W 124°06'918.0
2018-May-15 06:30N 48°17' W 123°54'1019.1
2018-May-15 05:58N 48°15' W 123°38'916.6
2018-May-15 05:25N 48°12' W 123°26'410.1
2018-May-15 05:00N 48°09' W 123°22'714.3
2018-May-15 04:31N 48°11' W 123°12'816.9
2018-May-15 04:01N 48°12' W 122°59'917.5
2018-May-15 03:30N 48°11' W 122°46'917.8
2018-May-15 03:00N 48°03' W 122°38'917.8
2018-May-15 02:30N 47°56' W 122°31'816.6
2018-May-15 02:01N 47°48' W 122°27'815.6
2018-May-15 01:31N 47°41' W 122°27'714.7
2018-May-15 01:01N 47°33' W 122°26'714.6
2018-May-15 00:31N 47°26' W 122°23'611.5
2018-May-15 00:00N 47°21' W 122°25'4 7.2
2018-May-14 23:30N 47°17' W 122°25'2 3.3
2018-May-14 23:00N 47°16' W 122°23'0 0.6
2018-May-14 22:27N 47°16' W 122°23'0 0.0
2018-May-14 22:00N 47°16' W 122°23'0 0.0
2018-May-14 21:27N 47°16' W 122°23'0 0.0
2018-May-14 20:54N 47°16' W 122°23'0 0.0
2018-May-14 20:12N 47°16' W 122°23'0 0.0
2018-May-14 20:00N 47°16' W 122°23'0 0.0
2018-May-14 19:24N 47°16' W 122°23'0 0.0
2018-May-14 19:00N 47°16' W 122°23'0 0.0
2018-May-14 18:30N 47°16' W 122°23'0 0.0
2018-May-14 18:00N 47°16' W 122°23'0 0.0
2018-May-14 17:30N 47°16' W 122°23'0 0.0
2018-May-14 16:57N 47°16' W 122°23'0 0.0
2018-May-14 16:21N 47°16' W 122°23'0 0.0
2018-May-14 15:57N 47°16' W 122°23'0 0.0
2018-May-14 15:30N 47°16' W 122°23'0 0.0
2018-May-14 15:00N 47°16' W 122°23'0 0.0
2018-May-14 14:30N 47°16' W 122°23'0 0.0
2018-May-14 14:00N 47°16' W 122°23'0 0.0
2018-May-14 13:30N 47°16' W 122°23'0 0.0
2018-May-14 12:57N 47°16' W 122°23'0 0.0
2018-May-14 12:30N 47°16' W 122°23'0 0.0
2018-May-14 11:54N 47°16' W 122°23'0 0.0
2018-May-14 11:27N 47°16' W 122°23'0 0.0
2018-May-14 11:00N 47°16' W 122°23'0 0.0
2018-May-14 10:27N 47°16' W 122°23'0 0.0
2018-May-14 10:00N 47°16' W 122°23'0 0.0
2018-May-14 09:30N 47°16' W 122°23'0 0.0
2018-May-14 08:57N 47°16' W 122°23'0 0.0
2018-May-14 08:30N 47°16' W 122°23'0 0.0
2018-May-14 08:00N 47°16' W 122°23'0 0.0
2018-May-14 07:30N 47°16' W 122°23'0 0.0
2018-May-14 07:00N 47°16' W 122°23'0 0.0
2018-May-14 06:30N 47°16' W 122°23'0 0.0
2018-May-14 06:00N 47°16' W 122°23'0 0.0
2018-May-14 05:30N 47°16' W 122°23'0 0.0
2018-May-14 05:00N 47°16' W 122°23'0 0.0
2018-May-14 04:30N 47°16' W 122°23'0 0.0
2018-May-14 04:00N 47°16' W 122°23'0 0.0
2018-May-14 03:30N 47°16' W 122°23'0 0.0
2018-May-14 03:00N 47°16' W 122°23'0 0.3
2018-May-14 02:30N 47°16' W 122°23'2 3.6
2018-May-14 02:00N 47°17' W 122°25'3 7.1
2018-May-14 01:31N 47°20' W 122°27'612.2
2018-May-14 01:01N 47°25' W 122°23'714.7
2018-May-14 00:31N 47°32' W 122°27'2 3.4
2018-May-13 23:59N 47°33' W 122°29'0 0.1
2018-May-13 23:29N 47°33' W 122°29'0 0.1
2018-May-13 22:59N 47°33' W 122°29'0 0.0
2018-May-13 22:29N 47°33' W 122°29'0 0.0
2018-May-13 21:59N 47°33' W 122°29'0 0.0
2018-May-13 21:29N 47°33' W 122°29'0 0.0
2018-May-13 20:59N 47°33' W 122°29'0 0.1
2018-May-13 20:29N 47°33' W 122°29'0 0.1
2018-May-13 19:59N 47°33' W 122°29'0 0.0
2018-May-13 19:29N 47°33' W 122°29'0 0.0
2018-May-13 18:59N 47°33' W 122°29'0 0.0
2018-May-13 18:29N 47°33' W 122°29'0 0.0
2018-May-13 17:59N 47°33' W 122°29'0 0.1
2018-May-13 17:29N 47°33' W 122°29'0 0.1
2018-May-13 16:59N 47°33' W 122°29'0 0.1
2018-May-13 16:29N 47°33' W 122°29'0 0.0
2018-May-13 15:59N 47°33' W 122°29'0 0.0
2018-May-13 15:29N 47°33' W 122°29'0 0.1
2018-May-13 14:56N 47°33' W 122°29'0 0.0
2018-May-13 14:29N 47°33' W 122°29'0 0.0
2018-May-13 13:59N 47°33' W 122°29'0 0.1
2018-May-13 13:29N 47°33' W 122°29'0 0.0
2018-May-13 12:59N 47°33' W 122°29'0 0.0
2018-May-13 12:29N 47°33' W 122°29'0 0.1
2018-May-13 11:59N 47°33' W 122°29'0 0.0
2018-May-13 11:29N 47°33' W 122°29'0 0.0
2018-May-13 10:59N 47°33' W 122°29'0 0.0
2018-May-13 10:29N 47°33' W 122°29'  
Track history (hours):
 
Tides and Currents Weather Stations Pressure Air Temp Water Temp Dewpoint Dewpoint Depression Visibility Wind Speed Wind Dir Waves Ship Positions

Martorell

Last reported at 2018-May-23 10:12 UTC. Time now 2018-May-26 04:17 UTC.
Position N 32°37' W 117°21'.

Type: Cargo ship. MMSI: 351780000.

Date/timePositionNaut miles runAvg speedWind from/ knotsBaromVisibWave heightAir tempDewpointWater temp
2018-May-23 10:12N 32°37' W 117°21'211.1
2018-May-23 10:00N 32°37' W 117°24'611.4
2018-May-23 09:30N 32°36' W 117°31'511.3
2018-May-23 09:01N 32°36' W 117°37'612.4
2018-May-23 08:30N 32°36' W 117°45'917.2
2018-May-23 08:00N 32°36' W 117°55'7213.4
2018-May-23 02:38N 33°15' W 119°07'217.2
2018-May-23 02:30N 33°16' W 119°08'917.2
2018-May-23 02:00N 33°23' W 119°14'3817.4
2018-May-22 23:49N 33°43' W 119°53'516.2
2018-May-22 23:29N 33°46' W 119°59'11 6.7
2018-May-22 21:51N 33°48' W 120°12'3 7.5
2018-May-22 21:29N 33°48' W 120°15'816.0
2018-May-22 20:59N 33°48' W 120°25'816.8
2018-May-22 20:30N 33°47' W 120°34'714.4
2018-May-22 20:00N 33°50' W 120°42'714.8
2018-May-22 19:30N 33°57' W 120°46'714.4
2018-May-22 19:00N 34°03' W 120°50'713.9
2018-May-22 18:30N 34°09' W 120°53'714.4
2018-May-22 18:00N 34°16' W 120°58'714.7
2018-May-22 17:30N 34°22' W 121°03'714.5
2018-May-22 17:01N 34°28' W 121°08'815.3
2018-May-22 16:30N 34°34' W 121°13'815.2
2018-May-22 16:00N 34°41' W 121°18'714.9
2018-May-22 15:30N 34°47' W 121°22'714.4
2018-May-22 15:00N 34°53' W 121°27'814.2
2018-May-22 14:26N 35°00' W 121°31'614.1
2018-May-22 14:00N 35°06' W 121°35'12914.6
2018-May-22 05:12N 37°03' W 122°39'314.8
2018-May-22 05:00N 37°06' W 122°40'814.9
2018-May-22 04:30N 37°13' W 122°43'714.9
2018-May-22 04:00N 37°21' W 122°44'714.7
2018-May-22 03:30N 37°28' W 122°44'714.6
2018-May-22 03:00N 37°35' W 122°44'714.8
2018-May-22 02:30N 37°42' W 122°42'5 9.2
2018-May-22 02:01N 37°46' W 122°38'713.5
2018-May-22 01:31N 37°49' W 122°30'611.2
2018-May-22 01:00N 37°53' W 122°25'2 4.3
2018-May-22 00:30N 37°54' W 122°24'1 2.7
2018-May-22 00:00N 37°54' W 122°22'0 0.0
2018-May-21 23:30N 37°54' W 122°22'0 0.0
2018-May-21 23:00N 37°54' W 122°22'0 0.1
2018-May-21 22:30N 37°54' W 122°22'0 0.1
2018-May-21 22:00N 37°54' W 122°22'0 0.0
2018-May-21 21:30N 37°54' W 122°22'0 0.1
2018-May-21 21:00N 37°54' W 122°22'0 0.1
2018-May-21 20:30N 37°54' W 122°22'0 0.0
2018-May-21 20:00N 37°54' W 122°22'0 0.0
2018-May-21 19:30N 37°54' W 122°22'0 0.0
2018-May-21 18:57N 37°54' W 122°22'0 0.0
2018-May-21 18:30N 37°54' W 122°22'0 0.0
2018-May-21 18:00N 37°54' W 122°22'0 0.0
2018-May-21 17:30N 37°54' W 122°22'0 0.0
2018-May-21 17:00N 37°54' W 122°22'0 0.0
2018-May-21 16:27N 37°54' W 122°22'0 0.0
2018-May-21 16:00N 37°54' W 122°22'0 0.0
2018-May-21 15:30N 37°54' W 122°22'0 0.0
2018-May-21 15:00N 37°54' W 122°22'0 0.1
2018-May-21 14:30N 37°54' W 122°22'0 0.0
2018-May-21 14:00N 37°54' W 122°22'0 0.4
2018-May-21 13:30N 37°54' W 122°22'3 5.4
2018-May-21 13:00N 37°55' W 122°25'4 8.1
2018-May-21 12:30N 37°51' W 122°25'3 5.3
2018-May-21 12:00N 37°49' W 122°27'510.9
2018-May-21 11:30N 37°47' W 122°33'713.1
2018-May-21 11:00N 37°44' W 122°41'5 9.3
2018-May-21 10:30N 37°46' W 122°46'712.5
2018-May-21 09:59N 37°49' W 122°53'612.4
2018-May-21 09:30N 37°52' W 122°60'612.5
2018-May-21 09:00N 37°56' W 123°07'612.3
2018-May-21 08:30N 37°59' W 123°13'612.0
2018-May-21 08:00N 38°04' W 123°18'612.3
2018-May-21 07:30N 38°08' W 123°23'714.9
2018-May-21 07:00N 38°14' W 123°29'918.0
2018-May-21 06:30N 38°22' W 123°36'918.0
2018-May-21 06:01N 38°29' W 123°42'917.6
2018-May-21 05:30N 38°37' W 123°47'1017.6
2018-May-21 04:56N 38°45' W 123°54'33017.8
2018-May-20 10:24N 44°14' W 124°38'819.0
2018-May-20 09:57N 44°22' W 124°36'5518.6
2018-May-20 06:58N 45°17' W 124°26'919.0
2018-May-20 06:30N 45°26' W 124°24'918.6
2018-May-20 06:00N 45°35' W 124°22'1518.8
2018-May-20 05:11N 45°51' W 124°19'318.7
2018-May-20 05:00N 45°54' W 124°18'918.4
2018-May-20 04:30N 46°03' W 124°16'1217.1
2018-May-20 03:48N 46°14' W 124°08'517.1
2018-May-20 03:30N 46°15' W 124°01'714.3
2018-May-20 03:00N 46°12' W 123°52'4 8.4
2018-May-20 02:30N 46°13' W 123°46'714.2
2018-May-20 02:01N 46°15' W 123°37'714.1
2018-May-20 01:31N 46°15' W 123°26'612.7
2018-May-20 01:00N 46°09' W 123°23'613.0
2018-May-20 00:31N 46°10' W 123°14'714.6
2018-May-20 00:01N 46°09' W 123°03'713.6
2018-May-19 23:30N 46°05' W 122°55'510.8
2018-May-19 23:00N 46°01' W 122°51'713.7
2018-May-19 22:31N 45°54' W 122°48'713.5
2018-May-19 22:01N 45°48' W 122°47'713.3
2018-May-19 21:31N 45°41' W 122°47'3 6.3
2018-May-19 21:00N 45°38' W 122°44'0 0.3
2018-May-19 20:29N 45°38' W 122°44'0 0.0
2018-May-19 19:59N 45°38' W 122°44'0 0.0
2018-May-19 19:26N 45°38' W 122°44'0 0.0
2018-May-19 18:59N 45°38' W 122°44'0 0.0
2018-May-19 18:26N 45°38' W 122°44'0 0.0
2018-May-19 17:59N 45°38' W 122°44'0 0.0
2018-May-19 17:29N 45°38' W 122°44'0 0.0
2018-May-19 16:59N 45°38' W 122°44'0 0.0
2018-May-19 16:29N 45°38' W 122°44'0 0.0
2018-May-19 15:56N 45°38' W 122°44'0 0.0
2018-May-19 15:23N 45°38' W 122°44'0 0.0
2018-May-19 14:59N 45°38' W 122°44'0 0.0
2018-May-19 14:29N 45°38' W 122°44'0 0.0
2018-May-19 13:59N 45°38' W 122°44'0 0.0
2018-May-19 13:29N 45°38' W 122°44'0 0.0
2018-May-19 12:56N 45°38' W 122°44'0 0.0
2018-May-19 12:26N 45°38' W 122°44'0 0.0
2018-May-19 11:59N 45°38' W 122°44'0 0.0
2018-May-19 11:26N 45°38' W 122°44'0 0.6
2018-May-19 11:00N 45°38' W 122°45'4 7.9
2018-May-19 10:30N 45°42' W 122°46'613.1
2018-May-19 10:00N 45°48' W 122°48'612.9
2018-May-19 09:31N 45°55' W 122°49'612.3
2018-May-19 09:01N 46°01' W 122°51'510.2
2018-May-19 08:30N 46°05' W 122°55'510.1
2018-May-19 08:00N 46°08' W 123°00'712.8
2018-May-19 07:29N 46°11' W 123°09'812.8
2018-May-19 06:50N 46°09' W 123°20'310.1
2018-May-19 06:30N 46°10' W 123°25'511.0
2018-May-19 06:01N 46°15' W 123°27'612.5
2018-May-19 05:30N 46°15' W 123°36'612.8
2018-May-19 05:00N 46°13' W 123°45'5 9.7
2018-May-19 04:31N 46°12' W 123°51'911.6
2018-May-19 03:44N 46°15' W 124°03'312.9
2018-May-19 03:30N 46°14' W 124°07'611.9
2018-May-19 03:00N 46°11' W 124°14'5 9.8
2018-May-19 02:30N 46°11' W 124°21'1 0.9
2018-May-19 01:51N 46°11' W 124°20'1 0.8
2018-May-19 01:12N 46°11' W 124°20'0 0.6
2018-May-19 01:00N 46°11' W 124°20'12 0.4
2018-May-17 20:13N 46°15' W 124°37'0 0.5
2018-May-17 20:00N 46°15' W 124°37'0 0.5
2018-May-17 19:30N 46°15' W 124°36'0 0.8
2018-May-17 19:00N 46°15' W 124°36'0 0.9
2018-May-17 18:30N 46°14' W 124°36'1 1.0
2018-May-17 18:00N 46°14' W 124°35'0 1.0
2018-May-17 17:30N 46°14' W 124°35'1 1.1
2018-May-17 17:00N 46°14' W 124°34'0 0.6
2018-May-17 16:30N 46°13' W 124°33'0 0.4
2018-May-17 16:00N 46°13' W 124°33'0 0.4
2018-May-17 15:30N 46°13' W 124°33'0 0.3
2018-May-17 15:00N 46°13' W 124°33'0 0.4
2018-May-17 14:30N 46°13' W 124°32'0 0.4
2018-May-17 14:00N 46°13' W 124°32'0 0.4
2018-May-17 13:28N 46°14' W 124°32'0 0.3
2018-May-17 13:00N 46°14' W 124°32'0 0.1
2018-May-17 12:30N 46°14' W 124°32'0 0.5
2018-May-17 12:00N 46°14' W 124°31'0 0.4
2018-May-17 11:30N 46°14' W 124°32'0 0.3
2018-May-17 11:00N 46°14' W 124°31'0 0.4
2018-May-17 10:30N 46°14' W 124°31'0 0.2
2018-May-17 10:00N 46°14' W 124°31'0 0.3
2018-May-17 09:30N 46°14' W 124°31'0 0.5
2018-May-17 09:00N 46°15' W 124°31'0 0.5
2018-May-17 08:30N 46°15' W 124°30'0 0.4
2018-May-17 08:00N 46°15' W 124°30'0 0.5
2018-May-17 07:22N 46°15' W 124°30'0 0.5
2018-May-17 07:00N 46°15' W 124°29'1 2.6
2018-May-17 06:30N 46°13' W 124°29'713.3
2018-May-17 06:00N 46°08' W 124°23'6 8.4
2018-May-17 05:21N 46°03' W 124°19'0 1.2
2018-May-17 05:00N 46°03' W 124°20'1 1.0
2018-May-17 04:30N 46°04' W 124°20'1 1.1
2018-May-17 04:00N 46°04' W 124°21'1 1.1
2018-May-17 03:30N 46°05' W 124°21'1 1.1
2018-May-17 03:00N 46°05' W 124°22'1 1.1
2018-May-17 02:16N 46°05' W 124°23'0 1.3
2018-May-17 02:00N 46°06' W 124°23'1 1.0
2018-May-17 01:30N 46°06' W 124°23'0 1.0
2018-May-17 01:00N 46°07' W 124°24'1 0.8
2018-May-16 23:57N 46°07' W 124°25'0 0.4
2018-May-16 23:30N 46°07' W 124°25'0 0.6
2018-May-16 23:00N 46°07' W 124°25'0 0.7
2018-May-16 22:30N 46°08' W 124°26'0 1.0
2018-May-16 22:00N 46°08' W 124°26'0 0.9
2018-May-16 21:30N 46°09' W 124°26'0 0.9
2018-May-16 21:00N 46°09' W 124°26'0 0.8
2018-May-16 20:30N 46°09' W 124°25'0 0.9
2018-May-16 20:00N 46°09' W 124°26'3 6.6
2018-May-16 19:30N 46°06' W 124°27'1 1.1
2018-May-16 19:00N 46°06' W 124°27'1 1.1
2018-May-16 18:30N 46°07' W 124°27'1 1.0
2018-May-16 18:00N 46°08' W 124°27'1 1.1
2018-May-16 17:30N 46°08' W 124°26'1 1.2
2018-May-16 17:00N 46°09' W 124°26'1 1.3
2018-May-16 16:30N 46°09' W 124°26'1 1.2
2018-May-16 16:00N 46°10' W 124°26'1 1.1
2018-May-16 15:30N 46°10' W 124°26'1 1.1
2018-May-16 15:00N 46°11' W 124°26'1 1.3
2018-May-16 14:30N 46°12' W 124°26'1 1.0
2018-May-16 14:00N 46°12' W 124°26'1 1.2
2018-May-16 13:30N 46°13' W 124°26'1 1.1
2018-May-16 13:00N 46°13' W 124°27'0 0.8
2018-May-16 12:30N 46°14' W 124°27'0 0.4
2018-May-16 12:00N 46°14' W 124°27'0 0.7
2018-May-16 11:30N 46°14' W 124°27'0 0.7
2018-May-16 11:00N 46°14' W 124°28'0 0.6
2018-May-16 10:30N 46°15' W 124°28'0 0.6
2018-May-16 10:00N 46°15' W 124°28'0 0.6
2018-May-16 09:30N 46°15' W 124°29'0 0.7
2018-May-16 09:00N 46°15' W 124°29'0 0.8
2018-May-16 08:30N 46°14' W 124°29'0 0.3
2018-May-16 08:00N 46°14' W 124°29'0 0.3
2018-May-16 07:30N 46°14' W 124°29'0 0.2
2018-May-16 07:00N 46°14' W 124°29'0 0.2
2018-May-16 06:30N 46°14' W 124°29'0 0.4
2018-May-16 06:00N 46°14' W 124°29'0 0.4
2018-May-16 05:29N 46°14' W 124°28'0 0.6
2018-May-16 05:00N 46°14' W 124°28'0 0.6
2018-May-16 04:30N 46°14' W 124°28'1 1.1
2018-May-16 04:00N 46°14' W 124°27'1 1.3
2018-May-16 03:30N 46°15' W 124°26'0 0.9
2018-May-16 03:00N 46°15' W 124°26'0 0.6
2018-May-16 02:30N 46°15' W 124°25'1 1.0
2018-May-16 02:00N 46°16' W 124°25'0 0.6
2018-May-16 01:30N 46°16' W 124°25'0 0.8
2018-May-16 01:00N 46°16' W 124°25'0 0.8
2018-May-16 00:30N 46°16' W 124°25'0 0.9
2018-May-16 00:00N 46°17' W 124°26'1 0.9
2018-May-15 23:17N 46°17' W 124°27'0 0.9
2018-May-15 23:00N 46°17' W 124°27'0 0.8
2018-May-15 22:30N 46°17' W 124°28'0 0.4
2018-May-15 21:56N 46°17' W 124°28'1 0.8
2018-May-15 21:17N 46°17' W 124°29'0 0.8
2018-May-15 21:00N 46°17' W 124°29'1 1.0
2018-May-15 20:30N 46°17' W 124°30'1 1.0
2018-May-15 20:00N 46°16' W 124°31'1 1.1
2018-May-15 19:30N 46°16' W 124°31'0 0.7
2018-May-15 19:00N 46°16' W 124°32'0 0.8
2018-May-15 18:30N 46°15' W 124°32'0 0.6
2018-May-15 17:49N 46°15' W 124°32'0 0.6
2018-May-15 17:30N 46°15' W 124°32'2 3.6
2018-May-15 17:00N 46°17' W 124°33'714.7
2018-May-15 16:30N 46°24' W 124°32'816.9
2018-May-15 16:01N 46°32' W 124°34'816.6
2018-May-15 15:31N 46°40' W 124°39'918.2
2018-May-15 15:00N 46°48' W 124°45'918.5
2018-May-15 14:30N 46°57' W 124°48'1018.4
2018-May-15 13:58N 47°06' W 124°53'918.5
2018-May-15 13:30N 47°15' W 124°57'2218.4
2018-May-15 12:17N 47°35' W 125°08'518.5
2018-May-15 12:00N 47°40' W 125°11'918.4
2018-May-15 11:30N 47°49' W 125°15'917.4
2018-May-15 11:00N 47°58' W 125°16'1018.4
2018-May-15 10:27N 48°08' W 125°12'818.4
2018-May-15 10:00N 48°16' W 125°10'917.6
2018-May-15 09:29N 48°25' W 125°07'817.1
2018-May-15 09:00N 48°30' W 124°58'918.4
2018-May-15 08:30N 48°30' W 124°44'917.8
2018-May-15 08:00N 48°27' W 124°32'918.1
2018-May-15 07:30N 48°24' W 124°19'918.2
2018-May-15 07:00N 48°20' W 124°06'918.0
2018-May-15 06:30N 48°17' W 123°54'1019.1
2018-May-15 05:58N 48°15' W 123°38'916.6
2018-May-15 05:25N 48°12' W 123°26'410.1
2018-May-15 05:00N 48°09' W 123°22'714.3
2018-May-15 04:31N 48°11' W 123°12'816.9
2018-May-15 04:01N 48°12' W 122°59'917.5
2018-May-15 03:30N 48°11' W 122°46'917.8
2018-May-15 03:00N 48°03' W 122°38'917.8
2018-May-15 02:30N 47°56' W 122°31'816.6
2018-May-15 02:01N 47°48' W 122°27'815.6
2018-May-15 01:31N 47°41' W 122°27'714.7
2018-May-15 01:01N 47°33' W 122°26'714.6
2018-May-15 00:31N 47°26' W 122°23'611.5
2018-May-15 00:00N 47°21' W 122°25'4 7.2
2018-May-14 23:30N 47°17' W 122°25'2 3.3
2018-May-14 23:00N 47°16' W 122°23'0 0.6
2018-May-14 22:27N 47°16' W 122°23'0 0.0
2018-May-14 22:00N 47°16' W 122°23'0 0.0
2018-May-14 21:27N 47°16' W 122°23'0 0.0
2018-May-14 20:54N 47°16' W 122°23'0 0.0
2018-May-14 20:12N 47°16' W 122°23'0 0.0
2018-May-14 20:00N 47°16' W 122°23'0 0.0
2018-May-14 19:24N 47°16' W 122°23'0 0.0
2018-May-14 19:00N 47°16' W 122°23'0 0.0
2018-May-14 18:30N 47°16' W 122°23'0 0.0
2018-May-14 18:00N 47°16' W 122°23'0 0.0
2018-May-14 17:30N 47°16' W 122°23'0 0.0
2018-May-14 16:57N 47°16' W 122°23'0 0.0
2018-May-14 16:21N 47°16' W 122°23'0 0.0
2018-May-14 15:57N 47°16' W 122°23'0 0.0
2018-May-14 15:30N 47°16' W 122°23'0 0.0
2018-May-14 15:00N 47°16' W 122°23'0 0.0
2018-May-14 14:30N 47°16' W 122°23'0 0.0
2018-May-14 14:00N 47°16' W 122°23'0 0.0
2018-May-14 13:30N 47°16' W 122°23'0 0.0
2018-May-14 12:57N 47°16' W 122°23'0 0.0
2018-May-14 12:30N 47°16' W 122°23'0 0.0
2018-May-14 11:54N 47°16' W 122°23'0 0.0
2018-May-14 11:27N 47°16' W 122°23'0 0.0
2018-May-14 11:00N 47°16' W 122°23'0 0.0
2018-May-14 10:27N 47°16' W 122°23'0 0.0
2018-May-14 10:00N 47°16' W 122°23'0 0.0
2018-May-14 09:30N 47°16' W 122°23'0 0.0
2018-May-14 08:57N 47°16' W 122°23'0 0.0
2018-May-14 08:30N 47°16' W 122°23'0 0.0
2018-May-14 08:00N 47°16' W 122°23'0 0.0
2018-May-14 07:30N 47°16' W 122°23'0 0.0
2018-May-14 07:00N 47°16' W 122°23'0 0.0
2018-May-14 06:30N 47°16' W 122°23'0 0.0
2018-May-14 06:00N 47°16' W 122°23'0 0.0
2018-May-14 05:30N 47°16' W 122°23'0 0.0
2018-May-14 05:00N 47°16' W 122°23'0 0.0
2018-May-14 04:30N 47°16' W 122°23'0 0.0
2018-May-14 04:00N 47°16' W 122°23'0 0.0
2018-May-14 03:30N 47°16' W 122°23'0 0.0
2018-May-14 03:00N 47°16' W 122°23'0 0.3
2018-May-14 02:30N 47°16' W 122°23'2 3.6
2018-May-14 02:00N 47°17' W 122°25'3 7.1
2018-May-14 01:31N 47°20' W 122°27'612.2
2018-May-14 01:01N 47°25' W 122°23'714.7
2018-May-14 00:31N 47°32' W 122°27'2 3.4
2018-May-13 23:59N 47°33' W 122°29'0 0.1
2018-May-13 23:29N 47°33' W 122°29'0 0.1
2018-May-13 22:59N 47°33' W 122°29'0 0.0
2018-May-13 22:29N 47°33' W 122°29'0 0.0
2018-May-13 21:59N 47°33' W 122°29'0 0.0
2018-May-13 21:29N 47°33' W 122°29'0 0.0
2018-May-13 20:59N 47°33' W 122°29'0 0.1
2018-May-13 20:29N 47°33' W 122°29'0 0.1
2018-May-13 19:59N 47°33' W 122°29'0 0.0
2018-May-13 19:29N 47°33' W 122°29'0 0.0
2018-May-13 18:59N 47°33' W 122°29'0 0.0
2018-May-13 18:29N 47°33' W 122°29'0 0.0
2018-May-13 17:59N 47°33' W 122°29'0 0.1
2018-May-13 17:29N 47°33' W 122°29'0 0.1
2018-May-13 16:59N 47°33' W 122°29'0 0.1
2018-May-13 16:29N 47°33' W 122°29'0 0.0
2018-May-13 15:59N 47°33' W 122°29'0 0.0
2018-May-13 15:29N 47°33' W 122°29'0 0.1
2018-May-13 14:56N 47°33' W 122°29'0 0.0
2018-May-13 14:29N 47°33' W 122°29'0 0.0
2018-May-13 13:59N 47°33' W 122°29'0 0.1
2018-May-13 13:29N 47°33' W 122°29'0 0.0
2018-May-13 12:59N 47°33' W 122°29'0 0.0
2018-May-13 12:29N 47°33' W 122°29'0 0.1
2018-May-13 11:59N 47°33' W 122°29'0 0.0
2018-May-13 11:29N 47°33' W 122°29'0 0.0
2018-May-13 10:59N 47°33' W 122°29'0 0.0
2018-May-13 10:29N 47°33' W 122°29'  

Dump ship's entire track history